Terminal Aerodrome Forecast
Issued by NWS

Current Version | Previous Version | Text Only | Print | Product List | Glossary On
Versions: 1 2 3 4 5 6 7 8 9 10 11 12 13 14 15 16 17 18
000
FTUS46 KSTO 300500
TAFSCK
TAF
KSCK 300536Z 3006/3106 00000KT P6SM SKC
     FM300800 00000KT 5SM BR SKC
      TEMPO 3008/3011 1SM BR
     FM301100 00000KT 1/4SM FG VV001
     FM301800 31006KT 2SM BR SCT004
     FM302000 31010G18KT P6SM FEW150
     FM310300 27005KT P6SM SKC=

USA.gov is the U.S. government's official web portal to all federal, state and local government web resources and services.